Time;durP1;ratioP1;P1;durP2;ratioP2;P2;SDS_P1;SDS_P2;PMS_P1;PMS_P2;Temp;Humidity;BMP_temperature;BMP_pressure;BME280_temperature;BME280_humidity;BME280_pressure;Samples;Min_cycle;Max_cycle;Signal;HPM_P1;HPM_P2
2022/05/19 00:01:58;;;;;;;;;9.00;9.00;;;;;26.16;50.57;100778.13;4834424;29;45427;-84
2022/05/19 00:04:25;;;;;;;;;0.33;0.33;;;;;26.14;50.78;100771.84;4832392;29;45453;-85
2022/05/19 00:06:51;;;;;;;;;7.00;6.00;;;;;26.14;51.50;100772.72;4831411;29;47691;-85
2022/05/19 00:09:17;;;;;;;;;7.33;6.33;;;;;26.12;50.77;100773.78;4815748;29;45605;-85
2022/05/19 00:11:44;;;;;;;;;5.67;5.67;;;;;26.01;50.55;100765.25;4832677;29;45478;-85
2022/05/19 00:14:10;;;;;;;;;7.67;6.33;;;;;25.99;50.30;100759.84;4818080;29;45648;-84
2022/05/19 00:16:36;;;;;;;;;9.00;9.00;;;;;25.93;50.19;100752.00;4831113;29;47229;-84
2022/05/19 00:19:02;;;;;;;;;6.33;6.33;;;;;25.94;50.53;100753.78;4834376;29;45214;-85
2022/05/19 00:21:28;;;;;;;;;9.33;9.33;;;;;25.92;50.33;100750.25;4839101;29;45367;-85
2022/05/19 00:23:53;;;;;;;;;6.67;6.67;;;;;25.89;50.44;100745.78;4838641;29;44919;-84
2022/05/19 00:26:19;;;;;;;;;10.00;7.00;;;;;25.86;50.45;100737.75;4854684;29;46269;-84
2022/05/19 00:28:44;;;;;;;;;11.00;11.00;;;;;25.80;51.12;100727.19;4851496;29;45870;-84
2022/05/19 00:34:32;;;;;;;;;8.00;8.00;;;;;25.77;52.40;100735.47;4859914;29;45343;-83
2022/05/19 00:37:01;;;;;;;;;9.67;9.67;;;;;25.72;53.15;100715.78;4853849;29;46729;-85
2022/05/19 00:39:28;;;;;;;;;11.33;11.33;;;;;25.73;54.54;100729.31;4871307;29;45402;-85
2022/05/19 00:44:38;;;;;;;;;10.33;9.67;;;;;25.69;56.59;100722.28;4872235;29;45847;-85
2022/05/19 00:47:05;;;;;;;;;11.00;11.00;;;;;25.69;57.24;100711.38;4872379;29;45695;-85
2022/05/19 00:49:40;;;;;;;;;12.67;12.67;;;;;25.74;59.02;100711.13;4872208;29;45424;-84
2022/05/19 00:52:12;;;;;;;;;10.00;10.00;;;;;25.70;59.51;100706.81;4855940;29;45437;-84
2022/05/19 00:54:42;;;;;;;;;13.33;13.33;;;;;25.65;60.96;100701.59;4872341;29;45911;-84
2022/05/19 00:57:14;;;;;;;;;15.67;13.00;;;;;25.63;61.35;100702.59;4854547;29;47198;-85
2022/05/19 00:59:58;;;;;;;;;13.67;13.67;;;;;25.61;62.49;100697.25;4870473;29;45436;-84
2022/05/19 01:02:28;;;;;;;;;15.33;14.00;;;;;25.54;62.84;100693.06;4871670;29;45479;-83
2022/05/19 01:05:00;;;;;;;;;13.00;12.00;;;;;25.47;63.75;100684.31;4867979;29;45358;-84
2022/05/19 01:07:55;;;;;;;;;14.33;14.33;;;;;25.48;63.64;100690.63;4868974;29;45106;-85
2022/05/19 01:10:21;;;;;;;;;13.33;13.33;;;;;25.42;63.86;100699.09;4851234;29;45471;-84
2022/05/19 01:12:50;;;;;;;;;13.67;13.67;;;;;25.43;64.59;100692.69;4868322;29;45383;-84
2022/05/19 01:15:16;;;;;;;;;11.33;11.33;;;;;25.33;65.01;100687.69;4853966;29;44872;-85
2022/05/19 01:17:42;;;;;;;;;17.33;17.00;;;;;25.31;65.19;100689.63;4868887;29;45599;-84
2022/05/19 01:20:16;;;;;;;;;15.33;14.33;;;;;25.34;65.03;100692.16;4852209;29;45596;-84
2022/05/19 01:23:09;;;;;;;;;13.33;13.33;;;;;25.30;65.70;100690.56;4868105;29;45459;-84
2022/05/19 01:26:05;;;;;;;;;16.33;16.00;;;;;25.32;66.39;100688.63;4868583;29;45351;-85
2022/05/19 01:28:30;;;;;;;;;14.67;14.67;;;;;25.19;66.31;100673.84;4852855;29;47115;-85
2022/05/19 01:30:56;;;;;;;;;15.00;15.00;;;;;25.18;66.74;100677.50;4866599;29;45472;-84
2022/05/19 01:33:21;;;;;;;;;14.00;14.00;;;;;25.14;67.82;100665.00;4852600;29;45452;-83
2022/05/19 01:35:47;;;;;;;;;14.00;14.00;;;;;25.20;67.26;100675.59;4838024;29;45619;-83
2022/05/19 01:38:32;;;;;;;;;15.33;13.67;;;;;25.23;67.89;100680.03;4837005;29;46898;-84
2022/05/19 01:41:44;;;;;;;;;13.00;13.00;;;;;25.21;68.43;100688.28;4852625;29;45815;-84
2022/05/19 01:44:31;;;;;;;;;13.67;13.67;;;;;25.20;68.91;100686.47;4777049;29;45790;-85
2022/05/19 01:47:09;;;;;;;;;13.67;12.67;;;;;25.17;69.00;100686.63;4778724;29;45501;-85
2022/05/19 01:49:57;;;;;;;;;16.67;15.33;;;;;25.14;68.18;100675.88;4762272;29;47167;-85
2022/05/19 01:52:31;;;;;;;;;18.67;18.67;;;;;25.14;69.45;100684.91;4778222;29;45946;-84
2022/05/19 01:55:02;;;;;;;;;16.00;14.00;;;;;25.14;69.86;100671.31;4778554;29;45497;-84
2022/05/19 01:57:33;;;;;;;;;13.67;13.67;;;;;25.12;69.26;100673.22;4778635;29;45897;-85
2022/05/19 02:00:20;;;;;;;;;14.67;14.33;;;;;25.13;70.01;100682.31;4777976;29;44950;-83
2022/05/19 02:02:54;;;;;;;;;14.00;14.00;;;;;25.10;69.57;100675.13;4762936;29;45511;-84
2022/05/19 02:05:29;;;;;;;;;15.33;15.33;;;;;25.06;70.62;100672.66;4776498;29;45527;-85
2022/05/19 02:07:58;;;;;;;;;19.00;15.00;;;;;25.07;70.67;100674.44;4762334;29;46067;-84
2022/05/19 02:10:30;;;;;;;;;16.33;15.33;;;;;24.97;72.36;100673.09;4761465;29;47146;-85
2022/05/19 02:13:00;;;;;;;;;19.00;16.67;;;;;24.99;70.85;100682.06;4777400;29;45494;-84
2022/05/19 02:15:27;;;;;;;;;16.33;16.33;;;;;24.90;71.32;100669.75;4779055;29;45436;-85
2022/05/19 02:17:53;;;;;;;;;17.33;16.67;;;;;24.92;71.67;100678.72;4821901;29;45915;-84
2022/05/19 02:20:23;;;;;;;;;14.00;14.00;;;;;24.90;71.21;100672.47;4854523;29;47081;-83
2022/05/19 02:22:49;;;;;;;;;18.67;17.00;;;;;24.79;71.52;100669.41;4854563;29;45207;-84
2022/05/19 02:25:28;;;;;;;;;18.00;17.00;;;;;24.87;72.42;100684.41;4872857;29;45808;-84
2022/05/19 02:28:02;;;;;;;;;16.00;16.00;;;;;24.83;72.44;100685.50;4856613;29;45418;-84
2022/05/19 02:30:30;;;;;;;;;15.67;15.67;;;;;24.78;72.86;100678.50;4875242;29;45014;-85
2022/05/19 02:32:56;;;;;;;;;18.33;18.33;;;;;24.76;72.38;100678.56;4875249;29;44875;-85
2022/05/19 02:35:23;;;;;;;;;15.33;15.33;;;;;24.77;72.48;100672.19;4887015;29;45453;-84
2022/05/19 02:37:51;;;;;;;;;17.33;16.00;;;;;24.75;72.61;100669.53;4876600;29;45842;-84
2022/05/19 02:40:20;;;;;;;;;15.67;15.67;;;;;24.76;71.85;100681.28;4875309;29;47372;-84
2022/05/19 02:42:47;;;;;;;;;15.00;15.00;;;;;24.71;72.05;100672.47;4875066;29;45573;-84
2022/05/19 02:45:14;;;;;;;;;18.67;17.00;;;;;24.72;72.16;100679.66;4891962;29;45576;-85
2022/05/19 02:47:40;;;;;;;;;16.67;16.67;;;;;24.68;72.02;100678.03;4891180;29;45384;-85
2022/05/19 02:50:08;;;;;;;;;15.00;15.00;;;;;24.69;72.80;100677.97;4873902;29;48265;-85
2022/05/19 02:52:34;;;;;;;;;14.67;14.00;;;;;24.64;73.04;100679.13;4890261;29;45167;-85
2022/05/19 02:55:01;;;;;;;;;16.33;15.00;;;;;24.61;73.01;100677.44;4891547;29;45422;-84
2022/05/19 02:57:26;;;;;;;;;18.67;17.00;;;;;24.58;71.62;100679.41;4874141;29;45584;-85
2022/05/19 02:59:52;;;;;;;;;16.33;14.67;;;;;24.58;73.39;100673.97;4890570;29;45485;-85
2022/05/19 03:02:20;;;;;;;;;15.33;15.33;;;;;24.58;72.24;100679.41;4873630;29;45390;-85
2022/05/19 03:04:45;;;;;;;;;17.67;17.67;;;;;24.57;73.84;100680.38;4890757;29;45359;-84
2022/05/19 03:07:11;;;;;;;;;19.00;16.00;;;;;24.60;71.76;100683.81;4874456;29;45447;-84
2022/05/19 03:09:38;;;;;;;;;17.67;17.67;;;;;24.63;73.12;100680.97;4874105;29;46772;-84
2022/05/19 03:12:04;;;;;;;;;17.33;17.33;;;;;24.54;73.00;100674.13;4875063;29;45497;-85
2022/05/19 03:14:30;;;;;;;;;16.00;14.00;;;;;24.58;73.98;100685.72;4874757;29;45550;-84
2022/05/19 03:20:18;;;;;;;;;15.67;15.67;;;;;24.51;73.70;100682.41;4891441;29;45503;-84
2022/05/19 03:22:43;;;;;;;;;17.33;17.33;;;;;24.49;74.01;100673.38;4892964;29;45410;-84
2022/05/19 03:25:10;;;;;;;;;17.67;17.00;;;;;24.44;73.80;100670.00;4891964;29;44939;-84
2022/05/19 03:27:37;;;;;;;;;15.33;15.33;;;;;24.46;74.14;100681.69;4890481;29;45586;-84
2022/05/19 03:30:06;;;;;;;;;16.00;15.00;;;;;24.47;74.48;100680.72;4874160;29;46560;-84
2022/05/19 03:32:32;;;;;;;;;16.67;15.00;;;;;24.44;74.34;100688.13;4875005;29;44917;-83
2022/05/19 03:34:57;;;;;;;;;16.67;15.00;;;;;24.36;73.93;100683.06;4891741;29;45460;-84
2022/05/19 03:37:23;;;;;;;;;17.33;16.00;;;;;24.39;73.52;100682.91;4859093;29;45419;-85
2022/05/19 03:39:48;;;;;;;;;18.67;15.33;;;;;24.41;74.22;100686.44;4852950;29;46680;-85
2022/05/19 03:42:13;;;;;;;;;16.67;16.67;;;;;24.39;74.30;100682.03;4854519;29;45353;-85
2022/05/19 03:44:39;;;;;;;;;16.00;16.00;;;;;24.40;73.66;100686.50;4854031;29;45403;-85
2022/05/19 03:47:05;;;;;;;;;21.67;18.67;;;;;24.41;74.73;100674.69;4835406;29;45400;-85
2022/05/19 03:49:32;;;;;;;;;15.33;15.33;;;;;24.40;74.34;100678.34;4849934;29;46765;-85
2022/05/19 03:51:57;;;;;;;;;17.67;17.33;;;;;24.37;74.01;100684.81;4851858;29;45488;-85
2022/05/19 03:54:23;;;;;;;;;18.67;16.67;;;;;24.40;73.16;100683.78;4836548;29;45472;-85
2022/05/19 03:56:48;;;;;;;;;15.00;15.00;;;;;24.40;72.72;100681.97;4836534;29;45492;-85
2022/05/19 03:59:14;;;;;;;;;16.33;16.33;;;;;24.39;72.60;100688.34;4852101;29;45416;-84
2022/05/19 04:01:40;;;;;;;;;16.67;16.67;;;;;24.40;72.98;100684.69;4852572;29;44763;-84
2022/05/19 04:04:06;;;;;;;;;15.33;14.00;;;;;24.43;72.37;100689.09;4838309;29;45586;-85
2022/05/19 04:06:34;;;;;;;;;15.33;15.33;;;;;24.44;71.94;100691.75;4889074;29;45470;-85
2022/05/19 04:09:00;;;;;;;;;20.33;19.33;;;;;24.43;72.96;100691.81;4872006;29;48079;-85
2022/05/19 04:11:26;;;;;;;;;17.00;17.00;;;;;24.44;72.36;100686.31;4889388;29;45478;-84
2022/05/19 04:13:52;;;;;;;;;17.67;17.00;;;;;24.43;72.09;100689.97;4872170;29;45387;-85
2022/05/19 04:16:17;;;;;;;;;20.67;18.00;;;;;24.37;72.50;100676.66;4888988;29;45723;-85
2022/05/19 04:18:43;;;;;;;;;19.67;15.33;;;;;24.39;72.09;100672.03;4871628;29;47413;-85
2022/05/19 04:21:08;;;;;;;;;12.00;11.00;;;;;24.36;72.69;100672.19;4872549;29;45340;-85
2022/05/19 04:24:12;;;;;;;;;15.33;15.33;;;;;24.46;73.06;100680.78;4872071;29;45737;-84
2022/05/19 04:26:37;;;;;;;;;17.00;17.00;;;;;24.40;72.35;100684.69;4872163;29;45673;-84
2022/05/19 04:29:03;;;;;;;;;14.00;14.00;;;;;24.41;71.57;100688.28;4870849;29;46566;-85
2022/05/19 04:31:29;;;;;;;;;19.00;16.67;;;;;24.44;72.09;100696.28;4871496;29;45463;-85
2022/05/19 04:33:57;;;;;;;;;17.33;16.67;;;;;24.44;71.65;100694.47;4872292;29;45908;-86
2022/05/19 04:36:22;;;;;;;;;14.00;14.00;;;;;24.47;71.36;100699.75;4888574;29;45416;-86
2022/05/19 04:38:48;;;;;;;;;15.33;15.33;;;;;24.54;71.01;100709.47;4871844;29;46984;-85
2022/05/19 04:41:13;;;;;;;;;14.33;14.33;;;;;24.62;70.63;100724.53;4873254;29;44866;-85
2022/05/19 04:43:40;;;;;;;;;18.33;17.00;;;;;24.65;70.58;100748.88;4890240;29;45431;-85
2022/05/19 04:46:12;;;;;;;;;16.33;16.33;;;;;24.61;70.38;100728.22;4892134;29;45525;-85
2022/05/19 04:48:37;;;;;;;;;13.67;11.67;;;;;24.61;70.17;100741.81;4875499;29;45678;-84
2022/05/19 04:51:03;;;;;;;;;18.33;17.00;;;;;24.68;70.78;100754.16;4891260;28;45359;-84
2022/05/19 04:53:28;;;;;;;;;15.00;15.00;;;;;24.58;71.05;100752.81;4873758;29;45416;-84
2022/05/19 04:55:55;;;;;;;;;16.67;15.33;;;;;24.52;71.38;100754.88;4889949;29;45315;-84
2022/05/19 04:58:21;;;;;;;;;15.00;14.33;;;;;24.41;72.74;100762.56;4874302;29;47131;-83
2022/05/19 05:00:48;;;;;;;;;16.33;15.67;;;;;24.40;73.26;100760.81;4875216;29;45502;-84
2022/05/19 05:03:14;;;;;;;;;16.67;15.33;;;;;24.31;72.99;100740.31;4875294;29;45206;-85
2022/05/19 05:05:39;;;;;;;;;13.67;12.33;;;;;24.34;74.26;100750.19;4892339;29;45777;-85
2022/05/19 05:11:28;;;;;;;;;15.33;14.33;;;;;24.36;73.27;100756.47;4895098;29;45369;-85
2022/05/19 05:13:54;;;;;;;;;16.00;15.67;;;;;24.34;73.33;100756.50;4876991;29;45794;-84
2022/05/19 05:16:19;;;;;;;;;15.67;15.67;;;;;24.44;72.91;100762.44;4876843;29;45841;-84
2022/05/19 05:18:44;;;;;;;;;19.33;18.33;;;;;24.45;73.02;100764.19;4894038;29;45390;-85
2022/05/19 05:21:13;;;;;;;;;17.00;16.00;;;;;24.49;72.98;100764.94;4875016;29;45461;-85
2022/05/19 05:23:40;;;;;;;;;20.67;19.67;;;;;24.59;72.67;100808.97;4891061;29;45502;-85
2022/05/19 05:26:07;;;;;;;;;20.67;20.67;;;;;24.61;72.45;100828.84;4874273;29;45434;-86
2022/05/19 05:28:33;;;;;;;;;19.67;16.67;;;;;24.62;72.64;100817.00;4844249;29;46907;-85
2022/05/19 05:30:59;;;;;;;;;16.00;15.00;;;;;24.62;72.60;100795.25;4854180;29;45457;-84
2022/05/19 05:33:26;;;;;;;;;15.33;15.33;;;;;24.70;72.20;100818.44;4855211;29;45431;-84
2022/05/19 05:35:58;;;;;;;;;15.33;14.67;;;;;24.81;72.38;100820.69;4856487;29;45392;-84
2022/05/19 05:38:24;;;;;;;;;13.67;13.67;;;;;24.79;72.40;100816.28;4854873;29;47698;-84
2022/05/19 05:40:50;;;;;;;;;20.33;18.67;;;;;24.84;71.82;100814.22;4855511;29;45718;-85
2022/05/19 05:43:18;;;;;;;;;13.33;13.33;;;;;24.90;72.29;100809.38;4854992;29;45506;-84
2022/05/19 05:49:07;;;;;;;;;18.33;16.00;;;;;25.03;71.79;100798.84;4854945;29;44817;-84
2022/05/19 05:51:32;;;;;;;;;16.00;15.00;;;;;25.01;70.41;100803.47;4853923;29;45156;-84
2022/05/19 05:53:58;;;;;;;;;16.00;14.33;;;;;25.07;70.22;100810.50;4854138;29;45331;-85
2022/05/19 05:56:24;;;;;;;;;15.00;14.00;;;;;25.09;69.99;100809.47;4857226;29;45413;-84
2022/05/19 05:58:50;;;;;;;;;15.00;15.00;;;;;25.07;69.83;100789.59;4854826;29;46697;-84
2022/05/19 06:01:17;;;;;;;;;16.00;15.33;;;;;25.20;69.28;100794.47;4856669;29;45636;-85
2022/05/19 06:03:48;;;;;;;;;15.33;15.33;;;;;25.09;69.76;100805.84;4859755;29;45419;-85
2022/05/19 06:06:14;;;;;;;;;18.00;16.33;;;;;25.01;69.90;100811.66;4875740;29;45381;-85
2022/05/19 06:08:39;;;;;;;;;17.00;15.33;;;;;25.05;70.15;100809.69;4876906;29;48417;-84
2022/05/19 06:11:06;;;;;;;;;18.67;16.00;;;;;25.06;69.98;100804.13;4876853;29;45463;-84
2022/05/19 06:13:32;;;;;;;;;16.33;16.33;;;;;25.09;69.33;100800.41;4893821;29;45505;-85
2022/05/19 06:15:58;;;;;;;;;15.67;15.67;;;;;25.14;69.18;100801.06;4893930;29;45581;-83
2022/05/19 06:18:25;;;;;;;;;18.00;17.00;;;;;25.13;69.43;100805.63;4879132;29;47986;-86
2022/05/19 06:20:51;;;;;;;;;12.00;12.00;;;;;25.13;69.49;100810.22;4879689;29;44746;-85
2022/05/19 06:23:18;;;;;;;;;17.33;17.33;;;;;25.13;68.84;100807.50;4879479;29;44758;-85
2022/05/19 06:25:44;;;;;;;;;17.33;17.33;;;;;25.13;68.97;100807.50;4877728;29;45666;-86
2022/05/19 06:28:10;;;;;;;;;16.67;16.00;;;;;25.05;69.37;100793.34;4876208;29;47319;-86
2022/05/19 06:31:13;;;;;;;;;17.33;17.33;;;;;25.19;68.93;100804.47;4894848;29;45557;-85
2022/05/19 06:33:38;;;;;;;;;15.67;15.67;;;;;25.10;69.10;100783.13;4880021;29;45087;-85
2022/05/19 06:36:05;;;;;;;;;18.67;18.00;;;;;25.12;69.14;100789.38;4894395;29;45475;-86
2022/05/19 06:38:32;;;;;;;;;18.00;16.33;;;;;25.22;69.05;100807.09;4894133;29;46906;-86
2022/05/19 06:43:47;;;;;;;;;18.67;16.67;;;;;25.23;68.69;100800.69;4821130;29;45008;-85
2022/05/19 06:46:13;;;;;;;;;19.00;18.00;;;;;25.23;68.42;100805.22;4820107;29;45545;-85
2022/05/19 06:48:38;;;;;;;;;28.33;24.00;;;;;25.38;68.15;100820.88;4820217;29;45405;-86
2022/05/19 06:51:04;;;;;;;;;17.33;17.33;;;;;25.20;68.07;100783.59;4819630;29;45354;-85
2022/05/19 06:56:55;;;;;;;;;17.67;17.67;;;;;25.38;68.30;100829.03;4821726;29;45397;-85
2022/05/19 06:59:29;;;;;;;;;19.00;19.00;;;;;25.33;68.75;100828.38;4820989;29;46872;-85
2022/05/19 07:02:01;;;;;;;;;21.67;21.67;;;;;25.23;69.06;100825.19;4804032;29;44869;-87
2022/05/19 07:04:32;;;;;;;;;19.67;19.67;;;;;25.27;68.88;100843.16;4824482;29;45444;-85
2022/05/19 07:07:02;;;;;;;;;17.00;17.00;;;;;25.10;68.71;100813.06;4819609;29;46087;-86
2022/05/19 07:09:28;;;;;;;;;17.67;15.33;;;;;25.28;68.13;100838.59;4803429;29;47590;-86
2022/05/19 07:11:54;;;;;;;;;19.33;19.33;;;;;25.12;68.14;100809.31;4818590;29;45415;-86
2022/05/19 07:14:23;;;;;;;;;17.67;16.67;;;;;25.20;68.00;100808.97;4819198;29;45641;-85
2022/05/19 07:16:50;;;;;;;;;18.00;17.33;;;;;25.39;68.20;100852.59;4818638;29;44799;-86
2022/05/19 07:22:06;;;;;;;;;19.00;18.50;;;;;25.27;67.42;100817.75;4884422;29;45364;-87
2022/05/19 07:24:32;;;;;;;;;19.67;19.00;;;;;25.12;67.55;100797.53;4875062;29;45665;-86
2022/05/19 07:27:01;;;;;;;;;13.33;12.67;;;;;25.38;67.45;100830.88;4859457;29;45742;-86
2022/05/19 07:29:32;;;;;;;;;21.33;20.33;;;;;25.43;66.92;100827.00;4860201;29;48202;-86
2022/05/19 07:32:10;;;;;;;;;;;;;;;;;;;;;
2022/05/19 07:35:24;;;;;;;;;22.67;19.00;;;;;25.68;66.62;100810.38;4878464;29;67943;-87
2022/05/19 07:48:27;;;;;;;;;23.67;22.33;;;;;26.74;63.64;100856.09;4787251;29;45621;-87
2022/05/19 07:51:05;;;;;;;;;21.00;19.67;;;;;26.73;63.78;100840.69;4786176;29;44950;-86
2022/05/19 07:53:48;;;;;;;;;21.67;18.00;;;;;26.80;62.97;100839.41;4759106;29;46667;-88
2022/05/19 07:56:50;;;;;;;;;18.67;18.67;;;;;26.94;61.92;100882.34;4783601;29;45322;-87
2022/05/19 07:59:44;;;;;;;;;18.33;18.33;;;;;26.83;61.90;100896.56;4738916;30;44826;-86
2022/05/19 08:02:35;;;;;;;;;16.33;15.67;;;;;26.86;61.82;100885.47;4754923;30;44811;-85
2022/05/19 08:06:01;;;;;;;;;17.33;17.00;;;;;26.90;60.89;100900.72;4754421;30;45596;-89
2022/05/19 08:15:47;;;;;;;;;18.00;16.67;;;;;26.38;60.62;100899.72;4732014;30;44861;-86
2022/05/19 08:18:42;;;;;;;;;13.33;13.00;;;;;26.31;60.01;100921.81;4728551;30;45806;-86
2022/05/19 08:25:03;;;;;;;;;15.67;14.00;;;;;26.38;59.05;100929.72;4759254;29;45783;-85
2022/05/19 08:27:47;;;;;;;;;;;;;;;;;;;;;
2022/05/19 08:30:15;;;;;;;;;13.00;13.00;;;;;26.34;59.96;100972.63;4764985;29;75368;-86
2022/05/19 08:32:43;;;;;;;;;13.33;10.33;;;;;26.29;60.02;100971.94;4766166;29;45392;-85
2022/05/19 08:35:15;;;;;;;;;13.00;12.00;;;;;26.28;59.39;100981.97;4769374;29;45005;-86
2022/05/19 08:37:51;;;;;;;;;13.67;11.67;;;;;26.16;59.47;100998.91;4764065;29;45109;-85
2022/05/19 08:40:35;;;;;;;;;;;;;;;;;;;;;
2022/05/19 08:43:12;;;;;;;;;13.33;11.67;;;;;26.24;58.54;100971.28;4749041;30;45828;-85
2022/05/19 08:46:08;;;;;;;;;10.33;10.33;;;;;26.37;58.74;100985.22;4747318;30;44907;-86
2022/05/19 08:48:41;;;;;;;;;11.67;10.33;;;;;26.33;58.80;100974.44;4752290;29;45066;-87
2022/05/19 08:51:12;;;;;;;;;10.33;8.67;;;;;26.45;57.83;100991.19;4773684;29;46275;-87
2022/05/19 08:54:23;;;;;;;;;;;;;;;;;;;;;
2022/05/19 08:57:12;;;;;;;;;10.67;8.67;;;;;26.33;57.18;100992.66;4775228;29;67974;-86
2022/05/19 09:00:18;;;;;;;;;9.00;9.00;;;;;26.26;56.44;100956.63;4772339;29;45585;-86
2022/05/19 09:02:58;;;;;;;;;9.00;9.00;;;;;26.38;55.82;101044.25;4829486;29;47125;-85
2022/05/19 09:05:54;;;;;;;;;9.33;9.33;;;;;26.33;55.38;101017.19;4837365;29;45024;-86
2022/05/19 09:08:59;;;;;;;;;6.00;4.33;;;;;26.18;55.70;101028.81;4840040;29;45377;-84
2022/05/19 09:18:50;;;;;;;;;8.67;8.67;;;;;25.62;56.51;101068.56;4838481;29;45532;-85
2022/05/19 09:33:16;;;;;;;;;20.67;20.67;;;;;25.04;55.03;101061.84;4799779;29;44867;-87
2022/05/19 09:56:55;;;;;;;;;9.67;9.00;;;;;25.71;51.72;101103.53;4761513;29;45521;-87
2022/05/19 09:59:57;;;;;;;;;11.00;9.67;;;;;25.84;51.85;101104.78;4753116;29;45783;-87
2022/05/19 10:02:41;;;;;;;;;8.00;8.00;;;;;25.90;51.55;101103.69;4801068;29;45566;-84
2022/05/19 10:05:32;;;;;;;;;5.00;5.00;;;;;25.93;50.69;101103.53;4798167;29;45411;-84
2022/05/19 10:08:05;;;;;;;;;4.00;4.00;;;;;25.54;49.68;101057.97;4769183;29;47504;-85
2022/05/19 10:11:05;;;;;;;;;5.33;5.33;;;;;25.64;49.92;101083.00;4802774;29;45843;-86
2022/05/19 10:17:26;;;;;;;;;5.00;4.33;;;;;25.54;49.83;101123.34;4876738;29;45373;-85
2022/05/19 10:20:06;;;;;;;;;3.00;3.00;;;;;25.65;49.14;101126.50;4875925;29;47416;-85
2022/05/19 10:22:38;;;;;;;;;6.33;5.00;;;;;25.89;48.65;101129.09;4876729;29;45496;-85
2022/05/19 10:25:24;;;;;;;;;3.33;3.33;;;;;26.23;48.32;101141.28;4875545;29;45447;-84
2022/05/19 10:31:40;;;;;;;;;3.00;3.00;;;;;26.68;45.24;101151.06;4877241;29;45450;-86
2022/05/19 10:34:22;;;;;;;;;;;;;;;;;;;;;
2022/05/19 10:37:49;;;;;;;;;5.00;3.33;;;;;26.70;45.84;101127.31;4875254;29;67870;-85
2022/05/19 10:40:39;;;;;;;;;1.33;1.33;;;;;26.71;46.20;101131.84;4876652;29;45404;-86
2022/05/19 10:43:05;;;;;;;;;1.67;1.67;;;;;26.80;46.28;101136.84;4859383;29;47284;-86
2022/05/19 10:45:40;;;;;;;;;2.67;2.33;;;;;27.00;45.37;101135.88;4863044;29;45321;-85
2022/05/19 10:48:17;;;;;;;;;3.00;3.00;;;;;27.18;45.66;101142.28;4857207;29;45373;-86
2022/05/19 10:51:05;;;;;;;;;3.00;3.00;;;;;27.39;45.83;101143.13;4860497;29;45508;-86
2022/05/19 10:53:33;;;;;;;;;4.00;3.00;;;;;27.52;44.41;101136.06;4870632;29;45586;-86
2022/05/19 10:56:10;;;;;;;;;2.33;2.33;;;;;27.46;44.52;101102.72;4860550;29;45532;-86
2022/05/19 10:59:14;;;;;;;;;2.00;2.00;;;;;27.62;43.88;101132.88;4860215;29;45423;-86
2022/05/19 11:05:34;;;;;;;;;3.67;3.67;;;;;27.27;44.20;101125.50;4859809;29;45570;-85
2022/05/19 11:08:43;;;;;;;;;3.00;3.00;;;;;27.44;44.97;101140.16;4858080;29;44846;-85
2022/05/19 11:11:57;;;;;;;;;3.00;3.00;;;;;27.63;44.83;101135.56;4859655;29;45569;-86
2022/05/19 11:15:11;;;;;;;;;3.67;3.00;;;;;27.66;44.09;101129.91;4839514;29;45738;-85
2022/05/19 11:18:02;;;;;;;;;3.00;2.33;;;;;27.81;44.13;101136.41;4839691;29;45702;-86
2022/05/19 11:20:33;;;;;;;;;4.67;4.67;;;;;27.96;43.83;101132.06;4839453;29;45716;-86
2022/05/19 11:23:24;;;;;;;;;3.33;3.33;;;;;27.69;43.95;101127.03;4856476;29;45516;-86
2022/05/19 11:26:35;;;;;;;;;;;;;;;;;;;;;
2022/05/19 11:32:49;;;;;;;;;3.00;3.00;;;;;27.54;42.81;101106.81;4876090;29;44795;-87
2022/05/19 11:35:54;;;;;;;;;3.67;3.67;;;;;27.44;43.91;101126.50;4878101;29;45640;-87
2022/05/19 11:42:04;;;;;;;;;3.67;3.67;;;;;27.44;43.39;101137.44;5204352;23;46827;-85
2022/05/19 11:44:38;;;;;;;;;2.33;2.33;;;;;27.34;43.46;101121.50;4894532;29;45840;-86
2022/05/19 11:56:32;;;;;;;;;3.67;3.67;;;;;27.45;42.92;101140.09;4895853;29;45397;-86
2022/05/19 11:59:01;;;;;;;;;1.67;1.67;;;;;27.60;42.68;101164.88;4895725;28;45406;-84
2022/05/19 12:01:38;;;;;;;;;2.33;2.33;;;;;27.54;42.36;101149.66;4878457;29;45453;-85
2022/05/19 12:04:15;;;;;;;;;3.50;3.50;;;;;27.76;43.16;101170.44;4887265;29;45812;-85
2022/05/19 12:13:34;;;;;;;;;2.25;2.25;;;;;28.00;42.29;101158.28;4858349;29;45772;-85
2022/05/19 12:16:14;;;;;;;;;2.25;2.25;;;;;28.05;42.91;101174.44;4845524;29;46316;-84
2022/05/19 12:19:00;;;;;;;;;1.33;1.33;;;;;28.03;42.45;101163.56;4874607;29;45401;-86
2022/05/19 12:21:57;;;;;;;;;3.00;3.00;;;;;28.25;42.91;101181.59;4839191;29;44801;-87
2022/05/19 12:24:31;;;;;;;;;0.00;0.00;;;;;28.18;42.49;101186.50;4827110;29;45695;-84
2022/05/19 12:27:59;;;;;;;;;3.00;3.00;;;;;28.20;42.89;101187.31;4854895;29;48011;-88
2022/05/19 12:34:05;;;;;;;;;2.67;1.33;;;;;27.98;43.02;101176.59;4836848;29;45355;-86
2022/05/19 12:36:44;;;;;;;;;1.67;1.67;;;;;27.73;41.75;101171.47;4822612;29;45471;-85
2022/05/19 12:39:15;;;;;;;;;2.00;2.00;;;;;27.42;41.98;101180.31;4850034;29;46827;-84
2022/05/19 12:42:15;;;;;;;;;3.00;3.00;;;;;27.10;42.92;101160.91;4873119;29;44947;-85
2022/05/19 12:44:56;;;;;;;;;1.67;1.67;;;;;27.03;43.01;101157.59;4858330;29;45444;-86
2022/05/19 12:47:34;;;;;;;;;3.33;2.00;;;;;27.16;43.71;101187.91;4871310;29;45272;-86
2022/05/19 12:53:24;;;;;;;;;2.33;1.33;;;;;27.03;43.65;101186.75;4877516;29;44860;-86
2022/05/19 12:56:00;;;;;;;;;3.50;3.50;;;;;26.86;44.14;101158.38;4876569;29;45808;-85
2022/05/19 12:58:45;;;;;;;;;2.00;2.00;;;;;27.07;44.26;101193.81;4879299;29;44961;-84
2022/05/19 13:01:37;;;;;;;;;;;;;;;;;;;;;
2022/05/19 13:04:21;;;;;;;;;4.00;3.67;;;;;27.43;44.38;101188.47;4878071;29;72402;-85
2022/05/19 13:07:05;;;;;;;;;3.67;3.67;;;;;27.50;43.71;101175.38;4850497;29;44950;-85
2022/05/19 13:09:51;;;;;;;;;4.00;4.00;;;;;27.44;43.66;101159.28;4878795;29;45410;-86
2022/05/19 13:16:02;;;;;;;;;3.25;1.50;;;;;27.54;42.87;101188.78;4880944;29;45600;-85
2022/05/19 13:18:36;;;;;;;;;0.25;0.25;;;;;27.37;43.15;101182.38;4879067;29;44879;-84
2022/05/19 13:21:14;;;;;;;;;2.67;2.67;;;;;27.33;43.41;101185.28;4880842;29;44743;-86
2022/05/19 13:23:45;;;;;;;;;1.50;1.50;;;;;27.29;42.72;101171.88;4863692;29;45613;-86
2022/05/19 13:33:12;;;;;;;;;2.00;2.00;;;;;27.34;44.43;101195.22;4881186;29;45427;-85
2022/05/19 13:35:55;;;;;;;;;1.33;1.33;;;;;27.32;44.10;101199.88;4878751;29;45454;-86
2022/05/19 13:38:59;;;;;;;;;;;;;;;;;;;;;
2022/05/19 13:41:26;;;;;;;;;1.25;1.25;;;;;27.11;44.68;101179.94;4871995;29;68782;-86
2022/05/19 13:44:27;;;;;;;;;2.67;2.33;;;;;27.19;45.14;101160.47;4875376;29;45607;-86
2022/05/19 13:46:53;;;;;;;;;4.00;4.00;;;;;28.21;44.59;101190.91;4859715;29;45836;-86
2022/05/19 13:49:53;;;;;;;;;4.00;4.00;;;;;30.11;39.66;101188.41;4860492;29;45565;-86
2022/05/19 13:52:44;;;;;;;;;;;;;;;;;;;;;
2022/05/19 13:55:36;;;;;;;;;4.33;3.33;;;;;33.38;35.06;101191.28;4876461;28;65543;-86
2022/05/19 13:59:01;;;;;;;;;;;;;;;;;;;;;
2022/05/19 14:01:32;;;;;;;;;3.00;3.00;;;;;34.47;32.90;101164.44;4894809;29;45440;-87
2022/05/19 14:04:07;;;;;;;;;2.33;2.33;;;;;35.28;32.84;101194.78;4880951;29;44823;-85
2022/05/19 14:06:38;;;;;;;;;4.33;4.33;;;;;36.31;31.55;101187.94;4881383;28;45358;-85
2022/05/19 14:09:22;;;;;;;;;3.00;2.00;;;;;37.02;29.30;101183.38;4894698;28;45150;-85
2022/05/19 14:12:19;;;;;;;;;2.00;2.00;;;;;37.72;27.64;101175.16;4880941;29;45535;-85
2022/05/19 14:15:01;;;;;;;;;4.33;4.33;;;;;37.97;26.23;101179.22;4880849;29;45783;-85
2022/05/19 14:17:55;;;;;;;;;4.33;4.33;;;;;37.86;28.16;101187.72;4867286;29;45496;-85
2022/05/19 14:24:29;;;;;;;;;3.67;3.67;;;;;38.37;26.78;101163.44;4804565;29;44821;-86
2022/05/19 14:27:01;;;;;;;;;2.00;2.00;;;;;38.68;27.56;101164.09;4818365;29;45549;-87